Time;durP1;ratioP1;P1;durP2;ratioP2;P2;SDS_P1;SDS_P2;PMS_P1;PMS_P2;Temp;Humidity;BMP_temperature;BMP_pressure;BME280_temperature;BME280_humidity;BME280_pressure;Samples;Min_cycle;Max_cycle;Signal;HPM_P1;HPM_P2
2021/06/27 00:02:24;;;;;;;;;;;;;;;23.10;63.21;99452.66;5131124;28;20017;-52
2021/06/27 00:04:49;;;;;;;;;;;;;;;23.80;60.71;99460.00;5130773;28;20022;-50
2021/06/27 00:07:15;;;;;;;;;;;;;;;23.60;60.58;99460.28;5130850;28;19939;-50
2021/06/27 00:09:41;;;;;;;;;;;;;;;22.84;63.46;99460.28;5130821;28;19911;-49
2021/06/27 00:12:07;;;;;;;;;;;;;;;22.78;63.74;99454.13;5131087;28;19946;-53
2021/06/27 00:14:33;;;;;;;;;;;;;;;22.81;63.67;99444.63;5130947;28;19912;-52
2021/06/27 00:16:58;;;;;;;;;;;;;;;22.88;63.30;99447.75;5112292;28;19923;-52
2021/06/27 00:19:23;;;;;;;;;;;;;;;23.08;62.77;99441.28;5130682;28;19919;-51
2021/06/27 00:21:49;;;;;;;;;;;;;;;23.76;60.23;99441.81;5115999;28;20006;-52
2021/06/27 00:24:14;;;;;;;;;;;;;;;23.32;60.61;99438.50;5110403;28;20464;-53
2021/06/27 00:26:39;;;;;;;;;;;;;;;22.75;62.18;99434.91;5109976;28;19912;-53
2021/06/27 00:29:05;;;;;;;;;;;;;;;22.91;62.17;99438.25;5110388;28;20037;-52
2021/06/27 00:31:30;;;;;;;;;;;;;;;22.93;61.23;99434.13;5109948;28;19912;-52
2021/06/27 00:33:55;;;;;;;;;;;;;;;23.10;60.58;99438.28;5111023;28;19911;-53
2021/06/27 00:36:21;;;;;;;;;;;;;;;23.23;59.08;99410.41;5114193;28;19990;-51
2021/06/27 00:38:46;;;;;;;;;;;;;;;23.00;59.62;99429.16;5114435;28;19923;-52
2021/06/27 00:41:11;;;;;;;;;;;;;;;22.74;60.45;99428.69;5121747;27;20013;-51
2021/06/27 00:43:36;;;;;;;;;;;;;;;22.59;61.20;99429.69;5135103;27;19912;-51
2021/06/27 00:46:02;;;;;;;;;;;;;;;22.68;61.15;99426.34;5134702;27;19918;-51
2021/06/27 00:48:27;;;;;;;;;;;;;;;23.10;59.65;99449.13;5134299;27;20438;-52
2021/06/27 00:50:53;;;;;;;;;;;;;;;22.99;59.89;99443.81;5134322;27;20032;-52
2021/06/27 00:53:19;;;;;;;;;;;;;;;22.44;60.92;99429.88;5134220;27;19918;-53
2021/06/27 00:55:45;;;;;;;;;;;;;;;22.32;61.40;99457.41;5134269;27;19997;-52
2021/06/27 00:58:11;;;;;;;;;;;;;;;22.50;60.91;99449.63;5134710;27;20345;-51
2021/06/27 01:00:39;;;;;;;;;;;;;;;22.43;61.69;99449.97;5134736;27;20406;-52
2021/06/27 01:03:05;;;;;;;;;;;;;;;22.54;60.70;99459.59;5134473;27;19911;-52
2021/06/27 01:05:31;;;;;;;;;;;;;;;22.58;61.07;99463.34;5134720;27;20387;-51
2021/06/27 01:07:56;;;;;;;;;;;;;;;23.46;58.47;99462.16;5134423;27;19919;-51
2021/06/27 01:10:22;;;;;;;;;;;;;;;23.88;56.72;99463.94;5134517;27;19917;-50
2021/06/27 01:12:47;;;;;;;;;;;;;;;23.09;60.00;99458.38;5134319;27;19919;-52
2021/06/27 01:15:13;;;;;;;;;;;;;;;22.82;59.69;99448.94;5134367;27;19938;-48
2021/06/27 01:17:38;;;;;;;;;;;;;;;22.88;60.13;99446.97;5134039;27;19924;-50
2021/06/27 01:20:10;;;;;;;;;;;;;;;23.08;58.89;99443.19;5134085;27;19960;-53
2021/06/27 01:22:36;;;;;;;;;;;;;;;22.93;57.88;99447.69;5093612;28;19922;-52
2021/06/27 01:25:01;;;;;;;;;;;;;;;22.98;58.50;99439.50;5093103;28;19998;-54
2021/06/27 01:27:26;;;;;;;;;;;;;;;23.46;56.13;99440.44;5093513;28;20318;-52
2021/06/27 01:29:51;;;;;;;;;;;;;;;23.34;57.58;99443.59;5093223;28;19912;-53
2021/06/27 01:32:17;;;;;;;;;;;;;;;22.63;59.34;99436.16;5093115;28;20264;-53
2021/06/27 01:34:45;;;;;;;;;;;;;;;22.66;58.60;99437.50;5092970;28;19923;-52
2021/06/27 01:37:10;;;;;;;;;;;;;;;22.73;59.22;99432.53;5093088;28;19912;-48
2021/06/27 01:39:36;;;;;;;;;;;;;;;22.85;59.25;99437.50;5092735;28;19916;-51
2021/06/27 01:42:01;;;;;;;;;;;;;;;23.08;58.09;99440.50;5120653;27;19931;-51
2021/06/27 01:44:27;;;;;;;;;;;;;;;22.88;59.67;99436.13;5133128;27;19915;-50
2021/06/27 01:46:54;;;;;;;;;;;;;;;23.75;56.37;99443.75;5132555;27;19912;-53
2021/06/27 01:49:19;;;;;;;;;;;;;;;22.88;59.45;99436.91;5133193;27;19916;-51
2021/06/27 01:51:44;;;;;;;;;;;;;;;22.57;60.63;99434.59;5132983;27;19968;-48
2021/06/27 01:54:10;;;;;;;;;;;;;;;22.63;59.75;99441.56;5133010;27;19919;-52
2021/06/27 01:56:35;;;;;;;;;;;;;;;22.82;58.90;99448.94;5132989;27;19918;-50
2021/06/27 01:59:04;;;;;;;;;;;;;;;22.88;58.14;99449.69;5132672;27;20406;-49
2021/06/27 02:01:47;;;;;;;;;;;;;;;22.86;59.33;99451.88;5132849;27;19980;-52
2021/06/27 02:04:12;;;;;;;;;;;;;;;23.21;58.51;99445.19;5132659;27;20002;-52
2021/06/27 02:06:39;;;;;;;;;;;;;;;23.93;55.82;99446.72;5132771;27;20358;-49
2021/06/27 02:09:08;;;;;;;;;;;;;;;23.98;55.32;99441.19;5132674;27;19922;-53
2021/06/27 02:11:33;;;;;;;;;;;;;;;22.77;59.27;99440.84;5132549;27;19911;-49
2021/06/27 02:13:59;;;;;;;;;;;;;;;22.47;60.37;99442.06;5132512;27;19917;-52
2021/06/27 02:16:24;;;;;;;;;;;;;;;22.55;59.35;99428.66;5132195;27;19958;-50
2021/06/27 02:18:50;;;;;;;;;;;;;;;22.60;59.35;99430.53;5132116;27;20272;-53
2021/06/27 02:21:16;;;;;;;;;;;;;;;22.75;59.68;99433.03;5122253;27;20006;-50
2021/06/27 02:23:41;;;;;;;;;;;;;;;22.62;60.24;99436.47;5112021;28;19915;-50
2021/06/27 02:26:07;;;;;;;;;;;;;;;22.94;59.66;99435.75;5111672;28;20009;-52
2021/06/27 02:28:32;;;;;;;;;;;;;;;23.19;59.57;99444.66;5093355;28;19973;-52
2021/06/27 02:30:58;;;;;;;;;;;;;;;22.33;61.33;99436.53;5111576;28;19916;-51
2021/06/27 02:33:23;;;;;;;;;;;;;;;22.13;61.98;99443.75;5111878;28;20371;-53
2021/06/27 02:35:48;;;;;;;;;;;;;;;22.24;61.45;99445.28;5111559;28;19912;-51
2021/06/27 02:38:14;;;;;;;;;;;;;;;22.32;60.74;99443.06;5111882;28;19911;-52
2021/06/27 02:40:41;;;;;;;;;;;;;;;22.41;60.27;99441.34;5114063;27;20380;-51
2021/06/27 02:43:07;;;;;;;;;;;;;;;22.30;60.23;99450.69;5131775;27;19915;-51
2021/06/27 02:45:32;;;;;;;;;;;;;;;22.68;58.79;99443.44;5132025;27;20387;-53
2021/06/27 02:47:57;;;;;;;;;;;;;;;22.79;58.75;99436.78;5131501;27;19916;-50
2021/06/27 02:50:23;;;;;;;;;;;;;;;22.36;60.51;99433.25;5131841;27;20044;-51
2021/06/27 02:52:48;;;;;;;;;;;;;;;21.97;61.51;99424.16;5131735;27;19912;-49
2021/06/27 02:55:13;;;;;;;;;;;;;;;21.95;61.76;99417.41;5131736;27;20001;-50
2021/06/27 02:57:39;;;;;;;;;;;;;;;22.16;60.65;99421.53;5130267;27;20390;-54
2021/06/27 03:00:05;;;;;;;;;;;;;;;22.19;60.54;99418.22;5131409;27;19918;-48
2021/06/27 03:02:30;;;;;;;;;;;;;;;22.37;60.04;99418.59;5131425;27;19960;-49
2021/06/27 03:04:55;;;;;;;;;;;;;;;22.47;60.22;99410.34;5131562;27;19911;-51
2021/06/27 03:07:21;;;;;;;;;;;;;;;22.83;58.02;99416.09;5131267;27;19911;-49
2021/06/27 03:09:46;;;;;;;;;;;;;;;22.22;60.64;99420.38;5131468;27;19933;-51
2021/06/27 03:12:12;;;;;;;;;;;;;;;22.24;60.90;99418.16;5131304;27;19915;-51
2021/06/27 03:14:37;;;;;;;;;;;;;;;22.23;60.31;99421.97;5131313;27;19923;-49
2021/06/27 03:17:03;;;;;;;;;;;;;;;22.41;59.45;99425.88;5131081;27;19923;-50
2021/06/27 03:19:28;;;;;;;;;;;;;;;22.41;59.49;99425.88;5131207;27;19926;-48
2021/06/27 03:21:53;;;;;;;;;;;;;;;22.55;58.36;99434.09;5115628;27;20321;-50
2021/06/27 03:24:18;;;;;;;;;;;;;;;23.08;57.14;99438.56;5110832;28;19911;-49
2021/06/27 03:26:44;;;;;;;;;;;;;;;22.96;58.72;99436.28;5110588;28;20402;-52
2021/06/27 03:29:09;;;;;;;;;;;;;;;22.37;59.88;99432.97;5110758;28;19916;-51
2021/06/27 03:31:34;;;;;;;;;;;;;;;22.26;60.68;99436.88;5110822;28;20376;-50
2021/06/27 03:34:00;;;;;;;;;;;;;;;22.58;59.74;99441.66;5110634;28;19912;-50
2021/06/27 03:36:25;;;;;;;;;;;;;;;22.73;58.93;99437.94;5092180;28;20285;-52
2021/06/27 03:39:05;;;;;;;;;;;;;;;23.00;58.50;99442.72;5110485;28;19935;-52
2021/06/27 03:41:35;;;;;;;;;;;;;;;23.25;57.23;99435.34;5120430;28;20156;-53
2021/06/27 03:44:01;;;;;;;;;;;;;;;24.43;53.84;99424.28;5130935;28;19911;-51
2021/06/27 03:46:26;;;;;;;;;;;;;;;25.07;52.44;99432.47;5130848;28;19911;-49
2021/06/27 03:48:52;;;;;;;;;;;;;;;24.28;54.00;99426.22;5131038;28;19921;-50
2021/06/27 03:51:17;;;;;;;;;;;;;;;23.99;55.60;99424.59;5130989;28;20329;-49
2021/06/27 03:53:42;;;;;;;;;;;;;;;24.15;54.97;99425.09;5130619;28;20325;-52
2021/06/27 03:56:08;;;;;;;;;;;;;;;24.25;55.24;99428.75;5130797;27;20530;-54
2021/06/27 03:58:33;;;;;;;;;;;;;;;24.49;54.99;99426.63;5130872;27;20002;-50
2021/06/27 04:00:58;;;;;;;;;;;;;;;24.61;54.42;99425.31;5130815;27;20289;-52
2021/06/27 04:03:24;;;;;;;;;;;;;;;25.50;51.69;99429.31;5130783;28;19912;-51
2021/06/27 04:05:49;;;;;;;;;;;;;;;25.16;52.44;99423.25;5130774;28;19927;-50
2021/06/27 04:08:14;;;;;;;;;;;;;;;25.16;52.56;99428.69;5130735;27;19915;-50
2021/06/27 04:10:39;;;;;;;;;;;;;;;25.54;51.23;99414.75;5134434;27;19911;-52
2021/06/27 04:13:05;;;;;;;;;;;;;;;25.79;50.64;99411.69;5133387;27;20276;-49
2021/06/27 04:15:30;;;;;;;;;;;;;;;26.03;49.52;99408.63;5134740;27;19915;-51
2021/06/27 04:17:55;;;;;;;;;;;;;;;26.64;48.26;99412.34;5134582;27;19923;-52
2021/06/27 04:20:21;;;;;;;;;;;;;;;26.99;46.92;99414.31;5132774;27;19919;-52
2021/06/27 04:22:46;;;;;;;;;;;;;;;26.62;48.02;99411.06;5114715;28;20044;-51
2021/06/27 04:25:11;;;;;;;;;;;;;;;26.68;48.50;99407.06;5114775;28;19912;-52
2021/06/27 04:27:37;;;;;;;;;;;;;;;26.79;47.74;99408.38;5114551;28;19923;-53
2021/06/27 04:30:03;;;;;;;;;;;;;;;27.16;46.38;99413.50;5114441;28;19935;-52
2021/06/27 04:32:28;;;;;;;;;;;;;;;27.44;44.78;99416.72;5114586;28;19938;-50
2021/06/27 04:34:54;;;;;;;;;;;;;;;27.92;44.26;99412.91;5114440;28;20276;-50
2021/06/27 04:37:19;;;;;;;;;;;;;;;27.77;44.68;99416.16;5114598;28;19911;-50
2021/06/27 04:39:45;;;;;;;;;;;;;;;28.02;43.88;99409.03;5114492;28;19919;-53
2021/06/27 04:42:10;;;;;;;;;;;;;;;28.30;43.18;99406.63;5129604;27;20224;-51
2021/06/27 04:44:35;;;;;;;;;;;;;;;28.95;42.37;99409.13;5134918;27;20002;-51
2021/06/27 04:47:01;;;;;;;;;;;;;;;28.76;42.94;99415.88;5135139;27;19915;-52
2021/06/27 04:49:26;;;;;;;;;;;;;;;28.48;43.03;99415.53;5134927;27;19915;-51
2021/06/27 04:51:51;;;;;;;;;;;;;;;28.72;42.48;99414.16;5134800;27;19967;-52
2021/06/27 04:54:17;;;;;;;;;;;;;;;29.75;40.40;99419.88;5135127;27;19915;-50
2021/06/27 04:56:42;;;;;;;;;;;;;;;29.87;40.56;99413.59;5134834;27;20003;-54
2021/06/27 04:59:09;;;;;;;;;;;;;;;29.68;41.04;99424.28;5134848;27;20351;-52
2021/06/27 05:01:34;;;;;;;;;;;;;;;29.85;40.30;99435.06;5134899;27;19915;-53
2021/06/27 05:04:00;;;;;;;;;;;;;;;29.73;39.22;99424.09;5134764;27;20374;-50
2021/06/27 05:06:25;;;;;;;;;;;;;;;29.39;40.93;99428.75;5134367;27;19915;-51
2021/06/27 05:08:50;;;;;;;;;;;;;;;28.33;43.22;99438.00;5134477;27;20010;-51
2021/06/27 05:11:15;;;;;;;;;;;;;;;29.17;41.91;99430.72;5134421;27;19969;-52
2021/06/27 05:13:41;;;;;;;;;;;;;;;29.91;40.61;99427.44;5134374;27;19950;-51
2021/06/27 05:16:06;;;;;;;;;;;;;;;30.46;39.92;99434.31;5134448;27;19941;-53
2021/06/27 05:18:31;;;;;;;;;;;;;;;30.44;39.50;99439.38;5134305;27;19924;-51
2021/06/27 05:20:58;;;;;;;;;;;;;;;30.32;39.40;99440.19;5124928;27;21405;-49
2021/06/27 05:23:24;;;;;;;;;;;;;;;30.51;38.99;99434.09;5113614;28;19920;-52
2021/06/27 05:25:50;;;;;;;;;;;;;;;30.71;38.54;99442.53;5113959;28;19981;-52
2021/06/27 05:28:15;;;;;;;;;;;;;;;31.45;37.32;99451.38;5113847;28;19916;-51
2021/06/27 05:30:41;;;;;;;;;;;;;;;31.25;38.35;99447.69;5113803;28;19977;-51
2021/06/27 05:33:06;;;;;;;;;;;;;;;31.43;37.23;99448.19;5113320;28;19919;-49
2021/06/27 05:35:31;;;;;;;;;;;;;;;31.86;37.29;99449.34;5113322;28;20053;-50
2021/06/27 05:37:56;;;;;;;;;;;;;;;32.31;36.17;99450.06;5113529;28;20296;-51
2021/06/27 05:40:22;;;;;;;;;;;;;;;32.37;35.23;99450.59;5113575;27;20003;-51
2021/06/27 05:42:48;;;;;;;;;;;;;;;31.66;34.81;99450.38;5134033;27;19915;-51
2021/06/27 05:45:13;;;;;;;;;;;;;;;32.08;34.66;99445.25;5134606;27;19922;-51
2021/06/27 05:47:38;;;;;;;;;;;;;;;32.57;34.40;99455.06;5134644;27;19918;-52
2021/06/27 05:50:04;;;;;;;;;;;;;;;33.15;32.98;99448.03;5115149;27;19911;-52
2021/06/27 05:52:29;;;;;;;;;;;;;;;33.13;33.57;99450.38;5133904;27;19919;-52
2021/06/27 05:54:54;;;;;;;;;;;;;;;33.21;33.47;99441.09;5134213;27;19918;-52
2021/06/27 05:57:22;;;;;;;;;;;;;;;33.24;33.03;99452.19;5133537;27;19915;-52
2021/06/27 05:59:48;;;;;;;;;;;;;;;33.52;32.75;99445.63;5133772;27;19995;-51
2021/06/27 06:02:13;;;;;;;;;;;;;;;34.22;31.85;99446.50;5133435;27;20019;-52
2021/06/27 06:04:38;;;;;;;;;;;;;;;33.68;32.98;99446.38;5133729;27;19922;-52
2021/06/27 06:07:03;;;;;;;;;;;;;;;33.22;33.31;99440.72;5133244;27;19984;-51
2021/06/27 06:09:29;;;;;;;;;;;;;;;33.06;33.13;99448.25;5133148;27;20010;-52
2021/06/27 06:11:54;;;;;;;;;;;;;;;33.46;32.87;99450.66;5096293;28;20068;-48
2021/06/27 06:14:19;;;;;;;;;;;;;;;33.71;32.84;99452.31;5111983;28;19918;-52
2021/06/27 06:16:45;;;;;;;;;;;;;;;33.26;33.34;99444.38;5112221;28;20278;-51
2021/06/27 06:19:11;;;;;;;;;;;;;;;33.60;33.45;99449.31;5112409;28;19927;-51
2021/06/27 06:21:36;;;;;;;;;;;;;;;34.03;32.76;99459.19;5112208;28;20042;-49
2021/06/27 06:24:01;;;;;;;;;;;;;;;35.19;31.33;99456.19;5112261;28;19919;-50
2021/06/27 06:26:26;;;;;;;;;;;;;;;34.91;31.71;99457.38;5112628;28;19911;-51
2021/06/27 06:28:52;;;;;;;;;;;;;;;35.01;31.44;99456.75;5112180;28;20371;-51
2021/06/27 06:31:17;;;;;;;;;;;;;;;35.10;31.14;99467.50;5111934;28;19923;-51
2021/06/27 06:33:42;;;;;;;;;;;;;;;35.28;30.43;99456.72;5111667;28;20004;-50
2021/06/27 06:36:08;;;;;;;;;;;;;;;36.42;29.79;99466.50;5111789;28;19911;-51
2021/06/27 06:38:33;;;;;;;;;;;;;;;35.68;30.12;99460.72;5111995;28;20351;-50
2021/06/27 06:40:58;;;;;;;;;;;;;;;35.51;30.18;99467.63;5117158;27;19912;-50
2021/06/27 06:43:24;;;;;;;;;;;;;;;35.29;31.38;99458.28;5132474;27;19991;-48
2021/06/27 06:45:49;;;;;;;;;;;;;;;36.24;30.30;99467.16;5132746;27;19917;-48
2021/06/27 06:48:14;;;;;;;;;;;;;;;36.07;29.98;99462.25;5132256;27;19935;-52
2021/06/27 06:50:39;;;;;;;;;;;;;;;35.88;30.40;99458.53;5132192;27;19911;-50
2021/06/27 06:53:05;;;;;;;;;;;;;;;36.09;29.99;99457.13;5132317;27;19947;-50
2021/06/27 06:55:30;;;;;;;;;;;;;;;36.16;29.66;99457.19;5131842;27;19946;-50
2021/06/27 06:57:55;;;;;;;;;;;;;;;36.05;29.93;99457.09;5132302;27;20408;-50
2021/06/27 07:00:21;;;;;;;;;;;;;;;35.42;30.52;99456.84;5131844;27;20362;-50
2021/06/27 07:02:46;;;;;;;;;;;;;;;35.44;30.39;99451.72;5131920;27;19919;-50
2021/06/27 07:05:11;;;;;;;;;;;;;;;35.89;29.90;99446.28;5131867;27;20295;-51
2021/06/27 07:07:37;;;;;;;;;;;;;;;35.74;29.35;99467.50;5131635;27;19919;-51
2021/06/27 07:10:03;;;;;;;;;;;;;;;34.99;29.97;99458.28;5131652;27;19934;-50
2021/06/27 07:12:28;;;;;;;;;;;;;;;35.33;30.28;99453.59;5131458;27;20006;-50
2021/06/27 07:14:53;;;;;;;;;;;;;;;35.65;29.55;99461.44;5131696;27;19994;-51
2021/06/27 07:17:19;;;;;;;;;;;;;;;36.12;29.23;99459.09;5131434;27;20398;-51
2021/06/27 07:19:44;;;;;;;;;;;;;;;36.58;29.08;99469.78;5131589;27;20002;-50
2021/06/27 07:22:09;;;;;;;;;;;;;;;36.20;28.68;99455.25;5113576;27;19911;-51
2021/06/27 07:24:35;;;;;;;;;;;;;;;36.27;28.87;99463.63;5110966;28;19911;-51
2021/06/27 07:27:00;;;;;;;;;;;;;;;36.01;29.05;99465.38;5110958;28;19919;-50
2021/06/27 07:29:25;;;;;;;;;;;;;;;35.84;28.63;99465.22;5110553;28;19930;-50
2021/06/27 07:31:53;;;;;;;;;;;;;;;36.43;28.72;99466.13;5110983;28;19907;-49
2021/06/27 07:34:19;;;;;;;;;;;;;;;36.86;28.28;99469.19;5111038;28;19986;-51
2021/06/27 07:36:44;;;;;;;;;;;;;;;36.91;28.14;99468.78;5110785;28;20054;-51
2021/06/27 07:39:09;;;;;;;;;;;;;;;37.39;27.15;99462.25;5110913;28;19973;-51
2021/06/27 07:41:34;;;;;;;;;;;;;;;37.27;26.99;99470.97;5121275;28;20346;-51
2021/06/27 07:44:00;;;;;;;;;;;;;;;37.29;27.43;99466.59;5130872;27;19911;-51
2021/06/27 07:46:25;;;;;;;;;;;;;;;37.50;26.79;99463.09;5131338;27;20422;-48
2021/06/27 07:48:50;;;;;;;;;;;;;;;37.15;28.06;99466.56;5131180;28;19916;-49
2021/06/27 07:51:16;;;;;;;;;;;;;;;36.92;28.26;99461.28;5131565;28;19911;-51
2021/06/27 07:53:41;;;;;;;;;;;;;;;37.02;28.30;99466.06;5131036;28;20014;-51
2021/06/27 07:56:06;;;;;;;;;;;;;;;37.23;27.72;99468.16;5130676;28;19916;-51
2021/06/27 07:58:31;;;;;;;;;;;;;;;37.40;27.31;99466.66;5130961;27;19911;-51
2021/06/27 08:00:57;;;;;;;;;;;;;;;37.29;28.04;99472.16;5130461;27;19999;-52
2021/06/27 08:03:22;;;;;;;;;;;;;;;37.31;27.66;99469.78;5130560;28;19976;-51
2021/06/27 08:05:47;;;;;;;;;;;;;;;37.64;27.65;99456.00;5131022;28;20005;-51
2021/06/27 08:08:14;;;;;;;;;;;;;;;37.98;26.63;99464.78;5130295;28;19920;-51
2021/06/27 08:10:40;;;;;;;;;;;;;;;38.07;27.09;99454.09;5131308;28;19911;-39
2021/06/27 08:13:05;;;;;;;;;;;;;;;37.75;28.76;99459.59;5131117;28;20407;-39
2021/06/27 08:15:30;;;;;;;;;;;;;;;37.66;27.09;99459.19;5126140;28;19939;-39
2021/06/27 08:17:56;;;;;;;;;;;;;;;38.27;27.10;99465.59;5110608;28;19924;-39
2021/06/27 08:20:22;;;;;;;;;;;;;;;37.94;27.38;99455.66;5110368;28;19912;-40
2021/06/27 08:22:48;;;;;;;;;;;;;;;37.40;27.93;99460.31;5111190;28;19955;-39
2021/06/27 08:25:13;;;;;;;;;;;;;;;37.94;26.71;99452.88;5111147;28;20414;-39
2021/06/27 08:27:39;;;;;;;;;;;;;;;38.29;26.81;99449.31;5111297;28;19912;-38
2021/06/27 08:30:06;;;;;;;;;;;;;;;38.76;26.76;99452.03;5111240;28;19918;-39
2021/06/27 08:32:31;;;;;;;;;;;;;;;38.84;26.34;99452.78;5111120;28;19912;-40
2021/06/27 08:34:57;;;;;;;;;;;;;;;38.51;26.42;99457.63;5110972;28;19961;-39
2021/06/27 08:37:22;;;;;;;;;;;;;;;38.44;26.29;99452.88;5110825;28;19912;-38
2021/06/27 08:39:47;;;;;;;;;;;;;;;38.63;26.05;99448.91;5113055;28;19920;-39
2021/06/27 08:42:12;;;;;;;;;;;;;;;38.89;26.06;99444.81;5100315;28;20304;-39
2021/06/27 08:44:38;;;;;;;;;;;;;;;38.69;26.57;99443.69;5083913;28;19916;-39
2021/06/27 08:47:03;;;;;;;;;;;;;;;38.72;25.78;99446.47;5104049;28;19923;-39
2021/06/27 08:49:29;;;;;;;;;;;;;;;38.62;25.92;99443.75;5079965;28;19961;-39
2021/06/27 08:51:55;;;;;;;;;;;;;;;38.64;26.80;99446.91;5072025;28;20336;-37
2021/06/27 08:54:20;;;;;;;;;;;;;;;39.42;25.50;99442.22;5130564;28;19959;-39
2021/06/27 08:56:45;;;;;;;;;;;;;;;39.42;25.49;99440.22;5132945;27;19912;-39
2021/06/27 08:59:11;;;;;;;;;;;;;;;39.08;25.68;99432.47;5134664;27;20056;-39
2021/06/27 09:01:36;;;;;;;;;;;;;;;39.19;25.51;99439.97;5116064;27;19912;-39
2021/06/27 09:04:01;;;;;;;;;;;;;;;39.04;25.57;99436.47;5134547;27;20006;-39
2021/06/27 09:06:28;;;;;;;;;;;;;;;39.05;25.41;99433.28;5134557;27;19919;-39
2021/06/27 09:09:11;;;;;;;;;;;;;;;39.17;24.66;99437.59;5134141;27;19923;-39
2021/06/27 09:11:37;;;;;;;;;;;;;;;38.84;24.76;99431.34;5133642;27;19941;-39
2021/06/27 09:14:02;;;;;;;;;;;;;;;38.97;25.70;99431.69;5134209;27;20056;-39
2021/06/27 09:16:28;;;;;;;;;;;;;;;39.03;25.09;99423.75;5120772;27;19927;-38
2021/06/27 09:18:55;;;;;;;;;;;;;;;39.61;25.22;99425.03;5112974;28;19923;-39
2021/06/27 09:21:22;;;;;;;;;;;;;;;39.36;25.70;99427.16;5094556;28;20413;-39
2021/06/27 09:23:47;;;;;;;;;;;;;;;39.05;24.83;99424.13;5113245;28;19922;-39
2021/06/27 09:26:23;;;;;;;;;;;;;;;39.22;24.07;99414.91;5113489;28;20003;-38
2021/06/27 09:28:49;;;;;;;;;;;;;;;39.57;24.25;99412.34;5113468;28;19942;-39
2021/06/27 09:31:33;;;;;;;;;;;;;;;39.20;24.88;99420.06;5113496;28;19928;-40
2021/06/27 09:33:59;;;;;;;;;;;;;;;38.70;25.26;99414.72;5113622;28;19922;-39
2021/06/27 09:36:24;;;;;;;;;;;;;;;38.60;25.69;99426.69;5113185;28;19919;-39
2021/06/27 09:38:52;;;;;;;;;;;;;;;38.48;24.79;99417.53;5113298;28;19912;-40
2021/06/27 09:41:32;;;;;;;;;;;;;;;39.63;24.49;99424.63;5113197;28;20395;-39
2021/06/27 09:43:58;;;;;;;;;;;;;;;39.01;25.04;99420.56;5113047;28;19943;-40
2021/06/27 09:46:33;;;;;;;;;;;;;;;38.82;24.99;99416.25;5093577;28;19916;-40
2021/06/27 09:49:00;;;;;;;;;;;;;;;38.75;24.61;99411.53;5111025;28;20338;-39
2021/06/27 09:51:26;;;;;;;;;;;;;;;38.72;24.81;99406.75;5111703;28;19915;-40
2021/06/27 09:53:51;;;;;;;;;;;;;;;39.36;25.20;99407.69;5111137;28;19961;-39
2021/06/27 09:56:17;;;;;;;;;;;;;;;39.03;25.49;99410.66;5111082;28;20256;-39
2021/06/27 09:58:57;;;;;;;;;;;;;;;39.07;24.91;99411.41;5110706;28;19912;-40
2021/06/27 10:01:25;;;;;;;;;;;;;;;39.45;24.78;99405.25;5111949;28;19911;-39
2021/06/27 10:03:56;;;;;;;;;;;;;;;40.15;23.00;99405.09;5112729;28;19919;-38
2021/06/27 10:06:28;;;;;;;;;;;;;;;38.04;24.83;99402.13;5112768;28;19915;-38
2021/06/27 10:08:54;;;;;;;;;;;;;;;38.56;25.31;99396.09;5094135;28;19916;-39
2021/06/27 10:11:20;;;;;;;;;;;;;;;38.59;23.92;99391.72;5112376;28;19912;-38
2021/06/27 10:13:46;;;;;;;;;;;;;;;38.96;23.86;99387.63;5112291;28;19911;-38
2021/06/27 10:16:15;;;;;;;;;;;;;;;39.05;23.76;99388.78;5123418;27;20383;-38
2021/06/27 10:18:40;;;;;;;;;;;;;;;38.73;25.19;99386.13;5132859;27;19931;-39
2021/06/27 10:21:06;;;;;;;;;;;;;;;39.06;22.79;99379.22;5123783;27;19911;-38
2021/06/27 10:23:31;;;;;;;;;;;;;;;39.06;23.29;99384.00;5112409;28;20002;-38
2021/06/27 10:25:56;;;;;;;;;;;;;;;39.19;23.06;99382.34;5112236;28;20356;-38
2021/06/27 10:28:22;;;;;;;;;;;;;;;39.92;23.54;99379.88;5112183;28;19935;-39
2021/06/27 10:30:48;;;;;;;;;;;;;;;39.54;22.07;99374.19;5093821;28;19944;-39
2021/06/27 10:33:13;;;;;;;;;;;;;;;39.55;22.78;99371.00;5112114;28;20372;-39
2021/06/27 10:35:39;;;;;;;;;;;;;;;39.06;23.37;99365.31;5093765;28;19918;-39
2021/06/27 10:38:05;;;;;;;;;;;;;;;38.90;23.42;99367.78;5093652;28;19915;-39
2021/06/27 10:40:43;;;;;;;;;;;;;;;39.58;23.47;99372.94;5112605;28;19912;-39
2021/06/27 10:43:09;;;;;;;;;;;;;;;38.95;24.73;99364.56;5093801;28;19962;-39
2021/06/27 10:45:37;;;;;;;;;;;;;;;38.92;24.09;99362.59;5111826;28;19954;-40
2021/06/27 10:48:07;;;;;;;;;;;;;;;39.10;23.85;99360.53;5112092;28;20327;-40
2021/06/27 10:50:48;;;;;;;;;;;;;;;39.53;23.48;99353.91;5077508;28;19918;-40
2021/06/27 10:53:13;;;;;;;;;;;;;;;40.31;23.16;99359.16;5112102;28;19977;-39
2021/06/27 10:55:39;;;;;;;;;;;;;;;39.35;22.75;99354.00;5094295;28;19920;-39
2021/06/27 10:58:06;;;;;;;;;;;;;;;39.01;23.15;99353.84;5111638;28;20367;-38
2021/06/27 11:00:49;;;;;;;;;;;;;;;38.80;23.74;99346.38;5112027;28;19947;-38
2021/06/27 11:03:41;;;;;;;;;;;;;;;39.38;23.75;99350.41;5111897;28;19912;-39
2021/06/27 11:06:12;;;;;;;;;;;;;;;39.36;23.29;99343.69;5107679;28;20309;-39
2021/06/27 11:08:38;;;;;;;;;;;;;;;38.95;22.93;99338.75;5112026;28;19923;-39
2021/06/27 11:11:23;;;;;;;;;;;;;;;39.09;23.83;99338.72;5111695;28;19915;-39
2021/06/27 11:14:07;;;;;;;;;;;;;;;38.33;24.17;99336.22;5111620;28;19922;-39
2021/06/27 11:16:32;;;;;;;;;;;;;;;38.05;23.88;99334.25;5125136;27;19912;-39
2021/06/27 11:18:57;;;;;;;;;;;;;;;38.02;24.53;99332.28;5112699;27;19949;-39
2021/06/27 11:21:24;;;;;;;;;;;;;;;38.73;24.87;99330.53;5120573;27;19961;-40
2021/06/27 11:23:51;;;;;;;;;;;;;;;38.89;23.78;99328.03;5093333;28;20355;-39
2021/06/27 11:26:35;;;;;;;;;;;;;;;39.68;22.66;99327.53;5111249;28;20615;-39
2021/06/27 11:29:00;;;;;;;;;;;;;;;39.47;22.47;99320.16;5112569;28;20298;-39
2021/06/27 11:31:26;;;;;;;;;;;;;;;39.17;22.22;99308.84;5132161;27;19911;-40
2021/06/27 11:34:10;;;;;;;;;;;;;;;39.05;22.82;99310.91;5131822;27;19919;-39
2021/06/27 11:36:35;;;;;;;;;;;;;;;39.34;21.95;99307.09;5132014;27;20383;-39
2021/06/27 11:39:00;;;;;;;;;;;;;;;39.55;22.17;99311.75;5131834;27;19920;-39
2021/06/27 11:41:26;;;;;;;;;;;;;;;39.55;23.00;99303.41;5131798;27;19918;-38
2021/06/27 11:44:03;;;;;;;;;;;;;;;39.30;22.08;99296.81;5131639;28;19919;-38
2021/06/27 11:46:38;;;;;;;;;;;;;;;39.46;21.61;99304.66;5132010;28;20010;-38
2021/06/27 11:49:05;;;;;;;;;;;;;;;38.76;22.90;99306.69;5131501;28;19915;-38
2021/06/27 11:52:00;;;;;;;;;;;;;;;39.48;22.41;99302.25;5131537;28;20390;-39
2021/06/27 11:54:27;;;;;;;;;;;;;;;37.98;23.52;99302.94;5114435;28;19911;-39
2021/06/27 11:57:10;;;;;;;;;;;;;;;38.32;23.28;99304.06;5131292;27;19979;-39
2021/06/27 11:59:36;;;;;;;;;;;;;;;37.96;23.83;99303.34;5131511;28;19994;-40
2021/06/27 12:02:08;;;;;;;;;;;;;;;38.69;23.59;99313.88;5131576;27;20413;-39
2021/06/27 12:04:40;;;;;;;;;;;;;;;39.09;22.78;99311.69;5131411;28;19911;-38
2021/06/27 12:07:23;;;;;;;;;;;;;;;38.72;22.54;99313.03;5131130;28;19915;-39
2021/06/27 12:09:49;;;;;;;;;;;;;;;38.40;22.78;99309.59;5131200;28;19923;-39
2021/06/27 12:12:14;;;;;;;;;;;;;;;38.68;22.69;99306.72;5130990;28;19963;-40
2021/06/27 12:14:40;;;;;;;;;;;;;;;39.42;22.21;99312.22;5130877;28;19918;-41
2021/06/27 12:17:22;;;;;;;;;;;;;;;38.94;22.40;99318.50;5130930;28;20387;-39
2021/06/27 12:19:50;;;;;;;;;;;;;;;38.95;22.51;99310.94;5131268;28;20039;-40
2021/06/27 12:22:15;;;;;;;;;;;;;;;38.41;23.72;99305.63;5112506;28;19929;-38
2021/06/27 12:24:41;;;;;;;;;;;;;;;37.96;25.06;99314.44;5091994;28;20371;-40
2021/06/27 12:27:10;;;;;;;;;;;;;;;38.19;25.05;99318.78;5092077;28;19912;-39
2021/06/27 12:29:35;;;;;;;;;;;;;;;37.50;25.78;99306.94;5110507;28;19916;-39
2021/06/27 12:32:04;;;;;;;;;;;;;;;37.23;26.15;99312.84;5113059;28;20319;-39
2021/06/27 12:34:29;;;;;;;;;;;;;;;37.50;25.93;99309.69;5115037;28;19918;-39
2021/06/27 12:36:55;;;;;;;;;;;;;;;36.82;26.24;99304.81;5114644;28;20002;-39
2021/06/27 12:39:22;;;;;;;;;;;;;;;36.66;27.54;99307.16;5113137;28;20383;-39
2021/06/27 12:41:47;;;;;;;;;;;;;;;36.72;26.26;99302.81;5112973;28;19911;-39
2021/06/27 12:44:13;;;;;;;;;;;;;;;36.66;27.56;99298.84;5114147;28;19914;-39
2021/06/27 12:46:41;;;;;;;;;;;;;;;36.46;26.72;99310.22;5114704;28;19915;-38